Pagrindinis puslapis
METAR-TAF:

METAR-TAF

Oro uostai :

Sučava, Rumunija

platuma: 47-39N, ilguma: 026-15E, Aukštis: 351 m

Dabartinis oras

Ataskaita buvo paskelbta 24 minutes, ne 05:00 UTC
Vėjas 7 kt iš Šiaurės Vakarų
Temperatūra -1°C
Drėgmė 46%
Slėgis 1022 hPa
Matomumas 10 km arba daugiau
nėra debesų žemiau 1500 m ir nėra kamuolinių lietaus debesų

METAR: LRSV 010500Z 32007KT CAVOK M01/M11 Q1022

Laikas: 08:24 (05:24 UTC)

Prognozė

Ataskaita buvo paskelbta 3 valandos ir 24 minutes, ne 02:00 UTC
Prognozė galioja nuo 01 metu 03 UTC su 01 metu 12 UTC
Vėjas 7 kt iš Šiaurės Vakarų
Matomumas 10 km arba daugiau
nėra debesų žemiau 1500 m ir nėra kamuolinių lietaus debesų

TAF: LRSV 010200Z 0103/0112 31007KT CAVOK

Orai ataskaitas ir orų prognozės (METAR, TAF).

turimą stotys yra geltonos ir raudonos taškus žemėlapyje.

Perkelti pele per norėdami pamatyti stoties vardą.

Tada spustelėkite, norėdami matyti oro stebėjimo ir prognozės.

Norėdami pakeisti žemėlapį: spustelėkite ant žalios mygtukų su juodo kryžiaus žemyn,; žalią mygtuką su brūkšneliu, jei norite nutolinti; arba žalių rodyklių gretimoms žemėlapius.


METAR-TAF: